createdAt,value
2018-05-17T04:01:42.847Z,95551
2018-05-17T04:04:29.567Z,95545
2018-05-17T04:06:58.611Z,95556
2018-05-17T04:09:27.635Z,95584
2018-05-17T04:11:56.683Z,95559
2018-05-17T04:14:25.696Z,95559
2018-05-17T04:16:54.733Z,95553
2018-05-17T04:19:23.750Z,95565
2018-05-17T04:21:52.809Z,95561
2018-05-17T04:24:21.822Z,95564
2018-05-17T04:26:50.838Z,95573
2018-05-17T04:29:19.972Z,95566
2018-05-17T04:31:48.975Z,95567
2018-05-17T04:34:17.993Z,95581
2018-05-17T04:36:47.043Z,95581
2018-05-17T04:39:16.056Z,95583
2018-05-17T04:41:45.139Z,95585
2018-05-17T04:44:14.158Z,95591
2018-05-17T04:46:43.173Z,95596
2018-05-17T04:49:12.223Z,95600
2018-05-17T04:51:41.244Z,95586
2018-05-17T04:54:10.255Z,95597
2018-05-17T04:56:39.297Z,95590
2018-05-17T04:59:08.340Z,95594
2018-05-17T05:01:37.364Z,95592
2018-05-17T05:04:06.402Z,95589
2018-05-17T05:06:35.419Z,95593
2018-05-17T05:09:04.479Z,95587
2018-05-17T05:11:33.503Z,95581
2018-05-17T05:14:04.510Z,95589
2018-05-17T05:16:36.854Z,95585
2018-05-17T05:19:05.933Z,95598
2018-05-17T05:21:36.195Z,95595
2018-05-17T05:24:06.459Z,95589
2018-05-17T05:26:35.467Z,95587
2018-05-17T05:29:05.238Z,95583
2018-05-17T05:31:34.300Z,95588
2018-05-17T05:34:03.329Z,95586
2018-05-17T05:36:32.384Z,95593
2018-05-17T05:39:01.438Z,95593
2018-05-17T05:41:30.459Z,95594
2018-05-17T05:43:59.547Z,95597
2018-05-17T05:46:29.318Z,95597
2018-05-17T05:48:58.331Z,95598
2018-05-17T05:51:27.374Z,95597
2018-05-17T05:53:56.447Z,95593
2018-05-17T05:56:25.460Z,95587
2018-05-17T05:58:54.519Z,95589
2018-05-17T06:01:23.525Z,95588
2018-05-17T06:03:53.363Z,95591
2018-05-17T06:06:22.380Z,95600
2018-05-17T06:08:51.499Z,95605
2018-05-17T06:11:20.521Z,95610
2018-05-17T06:13:49.564Z,95608
2018-05-17T06:16:18.604Z,95624
2018-05-17T06:18:47.655Z,95610
2018-05-17T06:21:16.683Z,95622
2018-05-17T06:23:46.563Z,95626
2018-05-17T06:26:15.522Z,95630
2018-05-17T06:28:44.602Z,95630
2018-05-17T06:31:13.606Z,95631
2018-05-17T06:33:42.636Z,95639
2018-05-17T06:36:11.644Z,95644
2018-05-17T06:38:40.686Z,95642
2018-05-17T06:41:09.689Z,95652
2018-05-17T06:43:38.757Z,95653
2018-05-17T06:46:07.780Z,95646
2018-05-17T06:48:36.792Z,95648
2018-05-17T06:51:05.843Z,95654
2018-05-17T06:53:34.876Z,95653
2018-05-17T06:56:03.901Z,95655
2018-05-17T06:58:32.944Z,95655
2018-05-17T07:01:02.098Z,95649
2018-05-17T07:03:31.048Z,95657
2018-05-17T07:06:00.110Z,95656
2018-05-17T07:08:29.122Z,95650
2018-05-17T07:10:58.173Z,95647
2018-05-17T07:13:27.952Z,95652
2018-05-17T07:15:56.998Z,95663
2018-05-17T07:18:26.269Z,95663
2018-05-17T07:20:55.137Z,95661
2018-05-17T07:23:24.157Z,95671
2018-05-17T07:25:53.215Z,95659
2018-05-17T07:28:22.236Z,95661
2018-05-17T07:30:51.294Z,95668
2018-05-17T07:33:20.311Z,95664
2018-05-17T07:35:49.370Z,95673
2018-05-17T07:38:18.383Z,95674
2018-05-17T07:40:47.443Z,95680
2018-05-17T07:43:16.472Z,95672
2018-05-17T07:45:45.489Z,95666
2018-05-17T07:48:14.575Z,95670
2018-05-17T07:50:43.591Z,95672
2018-05-17T07:53:12.628Z,95675
2018-05-17T07:55:41.736Z,95674
2018-05-17T07:58:10.734Z,95671
2018-05-17T15:00:16.304Z,95823
2018-05-17T15:02:46.092Z,95825
2018-05-17T15:05:15.162Z,95822
2018-05-17T15:07:44.203Z,95835
2018-05-17T15:10:13.250Z,95828
2018-05-17T15:12:42.298Z,95836
2018-05-17T15:15:12.104Z,95829
2018-05-17T15:17:41.918Z,95830
2018-05-17T15:20:11.801Z,95837
2018-05-17T15:22:40.859Z,95837
2018-05-17T15:25:09.867Z,95831
2018-05-17T15:27:38.938Z,95831
2018-05-17T15:30:07.959Z,95834
2018-05-17T15:32:37.014Z,95834
2018-05-17T15:35:06.035Z,95835
2018-05-17T15:37:35.180Z,95835
2018-05-17T15:40:04.369Z,95838
2018-05-17T15:42:34.220Z,95843
2018-05-17T15:45:03.239Z,95840
2018-05-17T15:47:32.319Z,95840
2018-05-17T15:50:01.488Z,95836
2018-05-17T15:52:30.562Z,95836
2018-05-17T15:54:59.643Z,95843
2018-05-17T15:57:37.650Z,95844
2018-05-17T16:00:06.662Z,95842
2018-05-17T16:02:35.776Z,95842
2018-05-17T16:05:04.828Z,95837
2018-05-17T16:07:33.883Z,95838
2018-05-17T16:10:02.947Z,95841
2018-05-17T16:12:32.111Z,95838
2018-05-17T16:15:01.347Z,95843
2018-05-17T16:17:30.300Z,95845
2018-05-17T16:19:59.350Z,95835
2018-05-17T16:22:28.424Z,95851
2018-05-17T16:24:57.488Z,95838
2018-05-17T16:27:26.550Z,95851
2018-05-17T16:29:55.571Z,95845
2018-05-17T16:32:24.629Z,95843
2018-05-17T16:34:53.674Z,95851
2018-05-17T16:37:22.737Z,95844
2018-05-17T16:39:51.773Z,95841
2018-05-17T16:42:20.838Z,95854
2018-05-17T16:44:49.868Z,95854
2018-05-17T16:47:19.674Z,95848
2018-05-17T16:49:48.904Z,95845
2018-05-17T16:52:17.986Z,95852
2018-05-17T16:54:47.888Z,95860
2018-05-17T16:57:17.750Z,95842
2018-05-17T16:59:46.805Z,95853
2018-05-17T17:02:19.432Z,95853
2018-05-17T17:04:48.621Z,95854
2018-05-17T17:07:17.624Z,95858
2018-05-17T17:09:46.684Z,95854
2018-05-17T17:12:15.707Z,95860
2018-05-17T17:14:44.779Z,95855
2018-05-17T17:17:13.796Z,95849
2018-05-17T17:19:42.873Z,95837
2018-05-17T17:22:11.890Z,95845
2018-05-17T17:24:40.957Z,95847
2018-05-17T17:27:10.021Z,95851
2018-05-17T17:29:39.834Z,95854
2018-05-17T17:32:09.615Z,95860
2018-05-17T17:34:38.658Z,95866
2018-05-17T17:37:07.695Z,95859
2018-05-17T17:39:36.772Z,95863
2018-05-17T17:42:05.788Z,95856
2018-05-17T17:44:34.803Z,95856
2018-05-17T17:47:04.639Z,95865
2018-05-17T17:49:33.970Z,95863
2018-05-17T17:52:03.258Z,95868
2018-05-17T17:54:32.644Z,95876
2018-05-17T17:57:02.759Z,95868
2018-05-17T17:59:31.837Z,95873
2018-05-17T18:02:01.637Z,95865
2018-05-17T18:04:31.579Z,95878
2018-05-17T18:07:00.601Z,95866
2018-05-17T18:09:29.793Z,95879
2018-05-17T18:11:59.232Z,95866
2018-05-17T18:14:28.292Z,95871
2018-05-17T18:16:57.339Z,95869
2018-05-17T18:19:27.124Z,95881
2018-05-17T18:21:56.972Z,95882
2018-05-17T18:24:27.095Z,95883
2018-05-17T18:26:57.176Z,95878
2018-05-17T18:29:26.405Z,95887
2018-05-17T18:31:56.233Z,95885
2018-05-17T18:34:25.239Z,95883
2018-05-17T18:36:54.381Z,95884
2018-05-17T18:39:24.128Z,95892
2018-05-17T18:41:53.159Z,95892
2018-05-17T18:44:22.182Z,95894
2018-05-17T18:46:51.199Z,95901
2018-05-17T18:49:20.251Z,95902
2018-05-17T18:51:49.319Z,95903
2018-05-17T18:54:18.349Z,95898
2018-05-17T18:56:47.470Z,95902
2018-05-17T18:59:16.451Z,95903
2018-05-17T19:01:45.687Z,95906
2018-05-17T19:04:14.743Z,95916
2018-05-17T19:06:44.556Z,95918
2018-05-17T19:09:13.776Z,95918
2018-05-17T19:11:42.844Z,95921
2018-05-17T19:14:12.779Z,95917
2018-05-17T19:16:42.448Z,95927
2018-05-17T19:19:11.503Z,95923
2018-05-17T19:21:40.538Z,95923
2018-05-17T19:24:09.591Z,95925
2018-05-17T19:26:38.624Z,95934
2018-05-17T19:29:07.684Z,95941
2018-05-17T19:31:36.774Z,95936
2018-05-17T19:34:06.607Z,95944
2018-05-17T19:36:35.640Z,95937
2018-05-17T19:39:06.319Z,95950
2018-05-17T19:41:35.428Z,95945
2018-05-17T19:44:04.396Z,95943
2018-05-17T19:46:33.404Z,95936
2018-05-17T19:49:02.411Z,95940
2018-05-17T19:51:31.468Z,95946
2018-05-17T19:54:00.511Z,95957
2018-05-17T19:56:29.519Z,95954
2018-05-17T19:58:59.322Z,95953
2018-05-17T20:01:28.338Z,95948
2018-05-17T20:03:57.395Z,95951
2018-05-17T20:06:26.620Z,95948
2018-05-17T20:08:55.663Z,95955
2018-05-17T20:11:24.750Z,95953
2018-05-17T20:13:53.775Z,95953
2018-05-17T20:16:22.838Z,95960
2018-05-17T20:18:51.923Z,95967
2018-05-17T20:21:23.970Z,95954
2018-05-17T20:23:53.427Z,95958
2018-05-17T20:26:22.503Z,95967
2018-05-17T20:28:51.612Z,95957
2018-05-17T20:31:20.639Z,95964
2018-05-17T20:33:49.681Z,95967
2018-05-17T20:36:18.782Z,95973
2018-05-17T20:38:47.862Z,95970
2018-05-17T20:41:16.928Z,95982
2018-05-17T20:43:46.003Z,95986
2018-05-17T20:46:15.020Z,95980
2018-05-17T20:48:44.031Z,95981
2018-05-17T20:51:13.105Z,95979
2018-05-17T20:53:42.147Z,95976
2018-05-17T20:56:11.180Z,95976
2018-05-17T20:58:40.992Z,95966
2018-05-17T21:01:10.136Z,95974
2018-05-17T21:03:39.172Z,95975
2018-05-17T21:06:09.022Z,95981
2018-05-17T21:08:38.050Z,95978
2018-05-17T21:11:07.111Z,95978
2018-05-17T21:13:36.194Z,95979
2018-05-17T21:16:05.216Z,95979
2018-05-17T21:18:34.671Z,95985
2018-05-17T21:21:03.849Z,95978
2018-05-17T21:23:32.827Z,95981
2018-05-17T21:26:01.858Z,95982
2018-05-17T21:28:31.667Z,95975
2018-05-17T21:31:00.704Z,95975
2018-05-17T21:33:29.783Z,95972
2018-05-17T21:35:58.904Z,95977
2018-05-17T21:38:27.918Z,95973
2018-05-17T21:40:56.979Z,95976
2018-05-17T21:43:25.994Z,95987
2018-05-17T21:45:55.007Z,95986
2018-05-17T21:48:24.059Z,95978
2018-05-17T21:50:53.081Z,95973
2018-05-17T21:53:22.099Z,95976
2018-05-17T21:55:51.179Z,95980
2018-05-17T21:58:20.195Z,96002
